Time;durP1;ratioP1;P1;durP2;ratioP2;P2;SDS_P1;SDS_P2;PMS_P1;PMS_P2;Temp;Humidity;BMP_temperature;BMP_pressure;BME280_temperature;BME280_humidity;BME280_pressure;Samples;Min_cycle;Max_cycle;Signal;HPM_P1;HPM_P2
2024/01/13 00:04:30;;;;;;;28.13;16.40;;;;;;;;;;12920343;22;20395;-87
2024/01/13 00:09:34;;;;;;;28.30;16.02;;;;;;;;;;12920934;23;20380;-88
2024/01/13 00:14:36;;;;;;;28.07;16.20;;;;;;;;;;12941695;23;20403;-88
2024/01/13 00:19:38;;;;;;;25.80;15.13;;;;;;;;;;12920567;23;20844;-88
2024/01/13 00:24:42;;;;;;;28.10;15.80;;;;;;;;;;12919886;22;20433;-89
2024/01/13 00:29:44;;;;;;;26.75;15.50;;;;;;;;;;12920130;22;20443;-88
2024/01/13 00:34:47;;;;;;;29.00;16.67;;;;;;;;;;12920452;22;20376;-88
2024/01/13 00:39:50;;;;;;;24.83;14.48;;;;;;;;;;12920307;22;20422;-88
2024/01/13 00:44:53;;;;;;;24.77;15.00;;;;;;;;;;12920425;22;20395;-89
2024/01/13 00:49:55;;;;;;;25.95;14.60;;;;;;;;;;12919571;22;20925;-88
2024/01/13 00:54:59;;;;;;;22.50;14.65;;;;;;;;;;12919307;22;20422;-88
2024/01/13 01:00:01;;;;;;;25.33;15.30;;;;;;;;;;12940596;23;20438;-88
2024/01/13 01:05:04;;;;;;;25.75;14.70;;;;;;;;;;12921313;22;20403;-89
2024/01/13 01:10:09;;;;;;;24.10;14.60;;;;;;;;;;12920022;22;20434;-88
2024/01/13 01:15:11;;;;;;;25.23;13.82;;;;;;;;;;12919873;22;20402;-88
2024/01/13 01:20:14;;;;;;;23.67;14.13;;;;;;;;;;12920382;22;20435;-87
2024/01/13 01:25:17;;;;;;;25.02;14.35;;;;;;;;;;12919785;22;20384;-88
2024/01/13 01:30:20;;;;;;;24.77;14.27;;;;;;;;;;12919313;22;20388;-88
2024/01/13 01:35:22;;;;;;;24.33;13.82;;;;;;;;;;12919391;22;20364;-88
2024/01/13 01:40:30;;;;;;;25.90;14.63;;;;;;;;;;12919834;22;20438;-88
2024/01/13 01:45:33;;;;;;;22.48;13.27;;;;;;;;;;12921483;22;20372;-87
2024/01/13 01:50:36;;;;;;;21.80;13.70;;;;;;;;;;12923042;22;20380;-88
2024/01/13 01:55:40;;;;;;;25.85;14.35;;;;;;;;;;12923030;22;20520;-88
2024/01/13 02:00:43;;;;;;;24.33;13.27;;;;;;;;;;12923129;22;20365;-88
2024/01/13 02:05:45;;;;;;;26.27;14.20;;;;;;;;;;12922145;22;20395;-88
2024/01/13 02:10:49;;;;;;;24.50;14.35;;;;;;;;;;12921397;22;20422;-87
2024/01/13 02:15:51;;;;;;;23.57;14.10;;;;;;;;;;12922944;22;20399;-88
2024/01/13 02:20:54;;;;;;;22.98;12.45;;;;;;;;;;12924397;22;20364;-88
2024/01/13 02:25:57;;;;;;;24.08;12.93;;;;;;;;;;12918712;22;20376;-87
2024/01/13 02:30:59;;;;;;;22.55;13.32;;;;;;;;;;12918722;22;20388;-88
2024/01/13 02:36:02;;;;;;;25.13;13.67;;;;;;;;;;12917118;22;20820;-88
2024/01/13 02:41:06;;;;;;;21.42;13.27;;;;;;;;;;12909384;22;20432;-88
2024/01/13 02:46:08;;;;;;;22.48;13.05;;;;;;;;;;12910988;22;20833;-88
2024/01/13 02:51:14;;;;;;;23.40;13.18;;;;;;;;;;12918651;22;20388;-87
2024/01/13 02:56:18;;;;;;;19.90;12.25;;;;;;;;;;12913083;22;20364;-88
2024/01/13 03:01:20;;;;;;;19.00;11.85;;;;;;;;;;12913200;22;20411;-88
2024/01/13 03:06:24;;;;;;;22.10;12.40;;;;;;;;;;12936382;23;20399;-88
2024/01/13 03:11:28;;;;;;;21.98;12.07;;;;;;;;;;12919573;22;20864;-88
2024/01/13 03:16:30;;;;;;;20.85;12.32;;;;;;;;;;12922621;22;20376;-88
2024/01/13 03:21:33;;;;;;;20.50;12.25;;;;;;;;;;12921889;22;20434;-88
2024/01/13 03:26:36;;;;;;;20.77;12.23;;;;;;;;;;12924041;22;20368;-87
2024/01/13 03:31:39;;;;;;;21.10;12.77;;;;;;;;;;12920463;22;20535;-88
2024/01/13 03:36:41;;;;;;;23.70;13.27;;;;;;;;;;12922542;22;20746;-88
2024/01/13 03:41:45;;;;;;;20.95;12.77;;;;;;;;;;12943937;23;20398;-88
2024/01/13 03:46:47;;;;;;;20.15;11.57;;;;;;;;;;12921777;22;20434;-88
2024/01/13 03:51:50;;;;;;;19.37;12.07;;;;;;;;;;12921192;22;20388;-88
2024/01/13 03:56:54;;;;;;;23.52;12.75;;;;;;;;;;12921370;22;20736;-87
2024/01/13 04:01:56;;;;;;;24.70;12.93;;;;;;;;;;12922242;22;20372;-88
2024/01/13 04:06:58;;;;;;;21.63;12.43;;;;;;;;;;12941058;23;20891;-88
2024/01/13 04:12:02;;;;;;;20.00;11.80;;;;;;;;;;12920216;22;20388;-88
2024/01/13 04:17:05;;;;;;;21.02;12.38;;;;;;;;;;12920947;22;20368;-88
2024/01/13 04:22:07;;;;;;;22.10;12.27;;;;;;;;;;12921768;22;20412;-88
2024/01/13 04:27:11;;;;;;;24.38;13.05;;;;;;;;;;12920900;22;20368;-88
2024/01/13 04:32:13;;;;;;;20.38;11.77;;;;;;;;;;12920769;22;20407;-88
2024/01/13 04:37:16;;;;;;;21.95;11.73;;;;;;;;;;12922545;22;20387;-88
2024/01/13 04:42:19;;;;;;;21.40;11.63;;;;;;;;;;12922879;22;20369;-88
2024/01/13 04:47:22;;;;;;;20.95;11.77;;;;;;;;;;12920029;22;20751;-88
2024/01/13 04:52:24;;;;;;;20.23;11.68;;;;;;;;;;12942866;23;20372;-88
2024/01/13 04:57:28;;;;;;;22.23;11.65;;;;;;;;;;12920711;22;20372;-88
2024/01/13 05:02:30;;;;;;;22.20;11.75;;;;;;;;;;12921084;22;20426;-88
2024/01/13 05:07:32;;;;;;;19.27;12.10;;;;;;;;;;12920163;22;20365;-88
2024/01/13 05:12:36;;;;;;;22.75;13.35;;;;;;;;;;12940997;23;20372;-88
2024/01/13 05:17:39;;;;;;;22.95;11.98;;;;;;;;;;12919995;22;20445;-88
2024/01/13 05:22:41;;;;;;;20.90;12.10;;;;;;;;;;12925174;22;20728;-88
2024/01/13 05:27:45;;;;;;;27.30;14.20;;;;;;;;;;12920552;22;20423;-88
2024/01/13 05:32:47;;;;;;;26.38;14.73;;;;;;;;;;12940444;23;20446;-88
2024/01/13 05:37:50;;;;;;;54.58;25.88;;;;;;;;;;12921083;22;20483;-88
2024/01/13 05:42:53;;;;;;;58.38;26.90;;;;;;;;;;12923337;23;20421;-88
2024/01/13 05:47:56;;;;;;;39.10;19.50;;;;;;;;;;12923772;22;20374;-88
2024/01/13 05:52:58;;;;;;;20.02;12.35;;;;;;;;;;12949682;23;20438;-89
2024/01/13 05:58:02;;;;;;;21.75;11.85;;;;;;;;;;12924538;22;20376;-84
2024/01/13 06:03:04;;;;;;;20.95;11.63;;;;;;;;;;12924672;22;20403;-89
2024/01/13 06:08:07;;;;;;;20.63;11.77;;;;;;;;;;12927605;22;20372;-87
2024/01/13 06:13:11;;;;;;;19.30;11.17;;;;;;;;;;12921224;22;20407;-88
2024/01/13 06:18:14;;;;;;;17.67;10.85;;;;;;;;;;12922949;23;20364;-89
2024/01/13 06:23:16;;;;;;;20.80;12.20;;;;;;;;;;12922630;22;20898;-89
2024/01/13 06:28:20;;;;;;;19.52;11.25;;;;;;;;;;12923537;23;20399;-88
2024/01/13 06:33:22;;;;;;;20.00;11.33;;;;;;;;;;12917873;22;20414;-87
2024/01/13 06:38:25;;;;;;;20.27;11.38;;;;;;;;;;12942481;23;20399;-88
2024/01/13 06:43:28;;;;;;;19.45;10.80;;;;;;;;;;12920954;22;20902;-88
2024/01/13 06:48:31;;;;;;;20.47;11.03;;;;;;;;;;12918335;22;20367;-85
2024/01/13 06:53:33;;;;;;;21.98;11.25;;;;;;;;;;12914520;22;20442;-85
2024/01/13 06:58:37;;;;;;;22.90;13.43;;;;;;;;;;12915953;22;20439;-85
2024/01/13 07:03:39;;;;;;;22.85;12.57;;;;;;;;;;12915152;22;20693;-85
2024/01/13 07:08:43;;;;;;;17.55;10.98;;;;;;;;;;12908662;22;20918;-85
2024/01/13 07:13:47;;;;;;;22.13;12.27;;;;;;;;;;12909052;22;20391;-85
2024/01/13 07:18:49;;;;;;;19.67;11.80;;;;;;;;;;12910062;22;20450;-85
2024/01/13 07:23:52;;;;;;;22.20;12.13;;;;;;;;;;12917906;22;20384;-84
2024/01/13 07:28:55;;;;;;;19.15;11.48;;;;;;;;;;12937577;23;20407;-86
2024/01/13 07:33:58;;;;;;;17.52;11.07;;;;;;;;;;12918332;22;20388;-85
2024/01/13 07:39:00;;;;;;;18.30;11.48;;;;;;;;;;12911224;23;20369;-85
2024/01/13 07:44:04;;;;;;;21.77;11.90;;;;;;;;;;12914632;22;20380;-85
2024/01/13 07:49:07;;;;;;;19.23;11.80;;;;;;;;;;12910747;23;20364;-85
2024/01/13 07:54:09;;;;;;;22.83;15.13;;;;;;;;;;12915703;22;20384;-85
2024/01/13 07:59:13;;;;;;;22.58;12.95;;;;;;;;;;12916981;22;20399;-84
2024/01/13 08:04:15;;;;;;;27.63;13.98;;;;;;;;;;12916148;22;21122;-86
2024/01/13 08:09:18;;;;;;;24.35;14.25;;;;;;;;;;12933588;23;20393;-83
2024/01/13 08:14:22;;;;;;;24.60;13.47;;;;;;;;;;12912367;22;20432;-83
2024/01/13 08:19:24;;;;;;;22.85;13.35;;;;;;;;;;12910231;22;20416;-84
2024/01/13 08:24:27;;;;;;;24.98;13.65;;;;;;;;;;12911594;22;20356;-82
2024/01/13 08:29:30;;;;;;;23.37;12.77;;;;;;;;;;12922517;22;21051;-84
2024/01/13 08:34:33;;;;;;;25.77;14.87;;;;;;;;;;12924116;22;20384;-83
2024/01/13 08:39:35;;;;;;;22.88;12.52;;;;;;;;;;12912665;22;20368;-84
2024/01/13 08:44:39;;;;;;;24.40;12.90;;;;;;;;;;12909362;22;20441;-83
2024/01/13 08:49:42;;;;;;;27.13;14.10;;;;;;;;;;12932575;23;20438;-85
2024/01/13 08:54:44;;;;;;;24.25;13.07;;;;;;;;;;12935645;23;20848;-84
2024/01/13 08:59:48;;;;;;;24.02;12.98;;;;;;;;;;12915455;22;20442;-84
2024/01/13 09:04:50;;;;;;;26.97;15.23;;;;;;;;;;12935711;23;20497;-83
2024/01/13 09:09:52;;;;;;;22.02;12.82;;;;;;;;;;12915565;22;20365;-83
2024/01/13 09:14:56;;;;;;;25.20;13.73;;;;;;;;;;12914344;22;20423;-83
2024/01/13 09:19:58;;;;;;;26.35;14.25;;;;;;;;;;12916364;22;20369;-84
2024/01/13 09:25:01;;;;;;;25.02;14.02;;;;;;;;;;12937181;23;20372;-84
2024/01/13 09:30:06;;;;;;;27.88;16.90;;;;;;;;;;12915436;22;20368;-84
2024/01/13 09:35:08;;;;;;;26.52;13.88;;;;;;;;;;12916178;22;20415;-84
2024/01/13 09:40:13;;;;;;;24.77;14.25;;;;;;;;;;12915773;22;20372;-83
2024/01/13 09:45:18;;;;;;;27.53;14.50;;;;;;;;;;12917682;22;20368;-84
2024/01/13 09:50:21;;;;;;;26.50;14.57;;;;;;;;;;12914904;22;20721;-84
2024/01/13 09:55:24;;;;;;;25.30;14.93;;;;;;;;;;12915368;22;20805;-84
2024/01/13 10:00:30;;;;;;;25.10;14.02;;;;;;;;;;12918553;22;20415;-83
2024/01/13 10:05:33;;;;;;;25.20;13.73;;;;;;;;;;12916228;22;20400;-84
2024/01/13 10:10:36;;;;;;;25.38;13.45;;;;;;;;;;12941383;23;20357;-84
2024/01/13 10:15:40;;;;;;;30.13;15.80;;;;;;;;;;12918248;23;20743;-84
2024/01/13 10:20:42;;;;;;;28.00;14.55;;;;;;;;;;12919100;22;20419;-83
2024/01/13 10:25:44;;;;;;;25.35;14.45;;;;;;;;;;12919577;22;20376;-85
2024/01/13 10:30:51;;;;;;;25.70;13.70;;;;;;;;;;12918832;22;21132;-76
2024/01/13 10:35:53;;;;;;;22.33;12.90;;;;;;;;;;12918358;22;20408;-84
2024/01/13 10:40:56;;;;;;;24.08;13.95;;;;;;;;;;12917427;22;20844;-82
2024/01/13 10:46:03;;;;;;;25.50;13.30;;;;;;;;;;12934449;23;20519;-82
2024/01/13 10:51:16;;;;;;;27.15;15.60;;;;;;;;;;12933352;23;20364;-82
2024/01/13 10:56:19;;;;;;;25.97;14.30;;;;;;;;;;12912424;22;20377;-82
2024/01/13 11:01:23;;;;;;;20.40;12.00;;;;;;;;;;12904661;22;20368;-83
2024/01/13 11:06:25;;;;;;;22.27;11.45;;;;;;;;;;12909145;22;20749;-83
2024/01/13 11:11:37;;;;;;;20.47;11.67;;;;;;;;;;12903560;22;20460;-82
2024/01/13 11:16:44;;;;;;;22.57;11.70;;;;;;;;;;12902158;22;20418;-82
2024/01/13 11:21:48;;;;;;;21.50;12.23;;;;;;;;;;12903459;22;20402;-82
2024/01/13 11:26:51;;;;;;;35.80;18.93;;;;;;;;;;12904078;22;20411;-84
2024/01/13 11:31:57;;;;;;;22.10;12.87;;;;;;;;;;12904009;22;20376;-82
2024/01/13 11:37:00;;;;;;;24.27;13.48;;;;;;;;;;12919940;22;21071;-82
2024/01/13 11:42:05;;;;;;;48.30;27.65;;;;;;;;;;12902143;22;20434;-81
2024/01/13 11:47:11;;;;;;;20.98;12.15;;;;;;;;;;12900516;22;20439;-82
2024/01/13 11:52:14;;;;;;;21.15;11.90;;;;;;;;;;12895102;22;20784;-83
2024/01/13 11:57:17;;;;;;;21.67;13.07;;;;;;;;;;12900839;22;20466;-83
2024/01/13 12:02:22;;;;;;;23.52;14.15;;;;;;;;;;12902340;22;20427;-83
2024/01/13 12:07:25;;;;;;;47.88;25.48;;;;;;;;;;12902643;22;20968;-83
2024/01/13 12:12:27;;;;;;;25.02;14.43;;;;;;;;;;12900599;22;20380;-84
2024/01/13 12:17:31;;;;;;;25.20;13.93;;;;;;;;;;12902120;22;20430;-84
2024/01/13 12:22:33;;;;;;;26.42;15.05;;;;;;;;;;12912601;22;20463;-87
2024/01/13 12:27:35;;;;;;;24.33;14.80;;;;;;;;;;12901445;22;20474;-85
2024/01/13 12:32:40;;;;;;;20.95;13.20;;;;;;;;;;12919635;22;20423;-85
2024/01/13 12:37:43;;;;;;;23.37;12.07;;;;;;;;;;12904273;22;20472;-85
2024/01/13 12:42:46;;;;;;;20.98;12.65;;;;;;;;;;12923613;22;20376;-85
2024/01/13 12:47:53;;;;;;;20.98;12.48;;;;;;;;;;12904698;22;20360;-84
2024/01/13 12:52:57;;;;;;;23.47;13.07;;;;;;;;;;12904770;22;20465;-82
2024/01/13 12:57:59;;;;;;;30.98;20.60;;;;;;;;;;12904872;22;20404;-84
2024/01/13 13:03:04;;;;;;;22.95;12.00;;;;;;;;;;12903459;22;20438;-83
2024/01/13 13:08:06;;;;;;;20.80;13.90;;;;;;;;;;12904414;22;20376;-83
2024/01/13 13:13:08;;;;;;;21.27;12.63;;;;;;;;;;12902814;22;20427;-83
2024/01/13 13:18:12;;;;;;;23.73;14.50;;;;;;;;;;12903966;22;20393;-83
2024/01/13 13:23:16;;;;;;;23.15;13.70;;;;;;;;;;12903751;22;20887;-83
2024/01/13 13:28:18;;;;;;;23.70;13.63;;;;;;;;;;12904193;22;20486;-83
2024/01/13 13:33:22;;;;;;;26.63;14.60;;;;;;;;;;12905195;22;20392;-83
2024/01/13 13:38:25;;;;;;;26.70;14.93;;;;;;;;;;12903592;22;20422;-84
2024/01/13 13:43:29;;;;;;;24.67;14.63;;;;;;;;;;12905989;22;20542;-84
2024/01/13 13:48:36;;;;;;;29.33;16.20;;;;;;;;;;12908240;22;20407;-84
2024/01/13 13:53:38;;;;;;;26.92;14.70;;;;;;;;;;12907552;23;20481;-84
2024/01/13 13:58:40;;;;;;;27.38;15.93;;;;;;;;;;12907237;22;20384;-84
2024/01/13 14:03:44;;;;;;;27.05;14.98;;;;;;;;;;12907637;22;20449;-84
2024/01/13 14:08:46;;;;;;;23.45;14.20;;;;;;;;;;12903986;22;20902;-82
2024/01/13 14:13:49;;;;;;;23.08;14.48;;;;;;;;;;12898940;22;20431;-83
2024/01/13 14:18:52;;;;;;;26.48;16.30;;;;;;;;;;12904014;22;20376;-83
2024/01/13 14:23:55;;;;;;;21.30;13.77;;;;;;;;;;12907529;22;20388;-83
2024/01/13 14:28:57;;;;;;;27.10;17.27;;;;;;;;;;12920651;22;20540;-82
2024/01/13 14:34:01;;;;;;;25.27;15.07;;;;;;;;;;12907408;22;20414;-83
2024/01/13 14:39:03;;;;;;;27.37;17.00;;;;;;;;;;12907364;22;20434;-84
2024/01/13 14:44:06;;;;;;;33.28;18.88;;;;;;;;;;12925694;22;20372;-83
2024/01/13 14:49:10;;;;;;;24.10;14.63;;;;;;;;;;12907096;22;20740;-82
2024/01/13 14:54:12;;;;;;;26.70;15.40;;;;;;;;;;12906516;22;20454;-82
2024/01/13 14:59:14;;;;;;;22.67;14.50;;;;;;;;;;12906707;22;20979;-82
2024/01/13 15:04:18;;;;;;;23.17;15.03;;;;;;;;;;12906569;22;20832;-83
2024/01/13 15:09:20;;;;;;;28.80;15.48;;;;;;;;;;12906020;22;20671;-82
2024/01/13 15:14:23;;;;;;;27.52;16.08;;;;;;;;;;12904207;22;20804;-81
2024/01/13 15:19:27;;;;;;;25.35;14.90;;;;;;;;;;12906646;22;21033;-82
2024/01/13 15:24:29;;;;;;;26.23;16.50;;;;;;;;;;12906882;22;20434;-82
2024/01/13 15:29:31;;;;;;;27.95;16.30;;;;;;;;;;12905997;22;20380;-82
2024/01/13 15:34:36;;;;;;;24.88;15.75;;;;;;;;;;12905622;22;20453;-82
2024/01/13 15:39:38;;;;;;;30.27;16.17;;;;;;;;;;12907326;22;20693;-83
2024/01/13 15:44:40;;;;;;;26.90;15.53;;;;;;;;;;12905767;22;20380;-83
2024/01/13 15:49:45;;;;;;;30.63;17.17;;;;;;;;;;12907286;22;20426;-84
2024/01/13 15:54:47;;;;;;;29.27;17.45;;;;;;;;;;12905916;22;20388;-84
2024/01/13 15:59:49;;;;;;;28.02;15.85;;;;;;;;;;12907576;22;20384;-84
2024/01/13 16:04:53;;;;;;;29.90;16.73;;;;;;;;;;12905476;22;20409;-84
2024/01/13 16:09:56;;;;;;;27.65;15.85;;;;;;;;;;12906166;22;20411;-84
2024/01/13 16:14:58;;;;;;;28.30;16.45;;;;;;;;;;12898284;22;20880;-84
2024/01/13 16:20:02;;;;;;;28.95;16.88;;;;;;;;;;12902038;22;20380;-83
2024/01/13 16:25:06;;;;;;;32.78;18.25;;;;;;;;;;12914229;22;20438;-82
2024/01/13 16:30:08;;;;;;;34.95;18.38;;;;;;;;;;12915391;22;20396;-81
2024/01/13 16:35:12;;;;;;;38.63;21.20;;;;;;;;;;12901694;22;20421;-83
2024/01/13 16:40:17;;;;;;;39.00;22.90;;;;;;;;;;12900372;22;20380;-83
2024/01/13 16:45:20;;;;;;;37.33;21.15;;;;;;;;;;12902723;22;20409;-85
2024/01/13 16:50:24;;;;;;;43.58;24.80;;;;;;;;;;12904269;22;20477;-84
2024/01/13 16:55:26;;;;;;;50.25;29.27;;;;;;;;;;12903889;22;20421;-85
2024/01/13 17:00:28;;;;;;;45.88;24.83;;;;;;;;;;12901335;22;20430;-85
2024/01/13 17:05:32;;;;;;;47.83;27.00;;;;;;;;;;12906722;22;20381;-89
2024/01/13 17:10:34;;;;;;;46.13;27.23;;;;;;;;;;12903087;22;20442;-85
2024/01/13 17:15:37;;;;;;;52.20;28.30;;;;;;;;;;12898621;22;20867;-84
2024/01/13 17:20:40;;;;;;;46.05;27.23;;;;;;;;;;12904904;22;20840;-85
2024/01/13 17:25:43;;;;;;;45.08;26.08;;;;;;;;;;12912340;22;20360;-84
2024/01/13 17:30:45;;;;;;;48.47;26.55;;;;;;;;;;12933016;23;20411;-84
2024/01/13 17:35:49;;;;;;;51.97;29.08;;;;;;;;;;12912914;22;20375;-85
2024/01/13 17:40:52;;;;;;;48.30;28.10;;;;;;;;;;12934184;23;20418;-85
2024/01/13 17:45:56;;;;;;;47.57;26.00;;;;;;;;;;12915218;22;20368;-85
2024/01/13 17:51:02;;;;;;;47.30;26.67;;;;;;;;;;12915902;22;20398;-86
2024/01/13 17:56:05;;;;;;;44.65;25.55;;;;;;;;;;12914332;22;20845;-84
2024/01/13 18:01:07;;;;;;;43.53;25.27;;;;;;;;;;12917322;22;20360;-85
2024/01/13 18:06:11;;;;;;;45.45;25.92;;;;;;;;;;12918135;22;20403;-85
2024/01/13 18:11:13;;;;;;;52.40;28.20;;;;;;;;;;12939653;23;20430;-85
2024/01/13 18:16:16;;;;;;;50.93;28.47;;;;;;;;;;12918806;22;20467;-86
2024/01/13 18:21:19;;;;;;;58.67;30.23;;;;;;;;;;12919153;22;20365;-85
2024/01/13 18:26:22;;;;;;;56.85;30.45;;;;;;;;;;12918240;22;20482;-85
2024/01/13 18:31:24;;;;;;;54.97;29.30;;;;;;;;;;12938168;23;20364;-84
2024/01/13 18:36:28;;;;;;;58.78;31.20;;;;;;;;;;12937324;23;20372;-85
2024/01/13 18:41:31;;;;;;;73.67;38.57;;;;;;;;;;12908018;22;20384;-84
2024/01/13 18:46:33;;;;;;;68.85;35.42;;;;;;;;;;12907791;22;20368;-86
2024/01/13 18:51:37;;;;;;;74.90;39.13;;;;;;;;;;12908522;22;20380;-84
2024/01/13 18:56:42;;;;;;;70.00;38.43;;;;;;;;;;12907133;22;20392;-84
2024/01/13 19:01:44;;;;;;;75.60;41.70;;;;;;;;;;12907087;22;20430;-85
2024/01/13 19:06:48;;;;;;;68.78;38.38;;;;;;;;;;12905614;22;20384;-84
2024/01/13 19:11:51;;;;;;;68.15;38.63;;;;;;;;;;12906301;22;20411;-84
2024/01/13 19:16:54;;;;;;;71.77;38.53;;;;;;;;;;12907077;22;20376;-84
2024/01/13 19:21:57;;;;;;;70.05;39.83;;;;;;;;;;12908506;22;20426;-84
2024/01/13 19:27:00;;;;;;;75.53;39.53;;;;;;;;;;12908066;22;20528;-83
2024/01/13 19:32:02;;;;;;;80.00;41.42;;;;;;;;;;12906392;22;20430;-83
2024/01/13 19:37:07;;;;;;;76.57;39.72;;;;;;;;;;12924357;22;20445;-84
2024/01/13 19:42:09;;;;;;;76.03;41.60;;;;;;;;;;12905647;22;20372;-83
2024/01/13 19:47:12;;;;;;;73.53;39.30;;;;;;;;;;12928674;23;20368;-84
2024/01/13 19:52:16;;;;;;;66.63;38.17;;;;;;;;;;12905699;22;20411;-84
2024/01/13 19:57:18;;;;;;;72.70;40.30;;;;;;;;;;12905766;22;20384;-83
2024/01/13 20:02:21;;;;;;;66.40;38.97;;;;;;;;;;12907364;22;20384;-83
2024/01/13 20:07:25;;;;;;;70.90;38.50;;;;;;;;;;12905613;22;20443;-84
2024/01/13 20:12:28;;;;;;;71.07;38.83;;;;;;;;;;12906053;22;20443;-84
2024/01/13 20:17:30;;;;;;;70.40;37.77;;;;;;;;;;12904960;22;20419;-83
2024/01/13 20:22:34;;;;;;;69.18;38.97;;;;;;;;;;12907259;22;20926;-83
2024/01/13 20:27:36;;;;;;;92.30;44.97;;;;;;;;;;12916877;22;20376;-83
2024/01/13 20:32:39;;;;;;;70.80;38.10;;;;;;;;;;12917227;22;20368;-83
2024/01/13 20:37:43;;;;;;;71.45;39.40;;;;;;;;;;12900931;22;20384;-83
2024/01/13 20:42:45;;;;;;;75.10;39.45;;;;;;;;;;12901008;22;20365;-84
2024/01/13 20:47:47;;;;;;;78.22;41.33;;;;;;;;;;12899019;22;20585;-84
2024/01/13 20:52:52;;;;;;;83.35;45.25;;;;;;;;;;12897341;22;20384;-84
2024/01/13 20:57:55;;;;;;;84.07;43.83;;;;;;;;;;12902340;22;20474;-84
2024/01/13 21:02:57;;;;;;;82.18;47.08;;;;;;;;;;12897670;22;20437;-84
2024/01/13 21:08:01;;;;;;;80.07;42.83;;;;;;;;;;12902918;22;20862;-84
2024/01/13 21:13:04;;;;;;;86.53;43.70;;;;;;;;;;12907654;22;20371;-84
2024/01/13 21:18:07;;;;;;;83.43;44.53;;;;;;;;;;12896149;22;20388;-84
2024/01/13 21:23:10;;;;;;;82.97;44.13;;;;;;;;;;12898458;22;21040;-85
2024/01/13 21:28:13;;;;;;;77.50;44.07;;;;;;;;;;12914579;22;20368;-83
2024/01/13 21:33:15;;;;;;;82.63;44.00;;;;;;;;;;12916664;22;20368;-84
2024/01/13 21:38:19;;;;;;;84.40;43.42;;;;;;;;;;12901871;22;20418;-83
2024/01/13 21:43:21;;;;;;;82.32;43.65;;;;;;;;;;12897334;22;20504;-84
2024/01/13 21:48:23;;;;;;;78.68;42.38;;;;;;;;;;12903610;22;20384;-84
2024/01/13 21:53:27;;;;;;;83.43;43.20;;;;;;;;;;12905146;22;20922;-84
2024/01/13 21:58:30;;;;;;;76.28;42.25;;;;;;;;;;12900778;22;20385;-84
2024/01/13 22:03:32;;;;;;;80.05;43.15;;;;;;;;;;12907663;22;20430;-84
2024/01/13 22:08:36;;;;;;;84.23;41.90;;;;;;;;;;12904647;23;20736;-85
2024/01/13 22:13:39;;;;;;;80.25;41.88;;;;;;;;;;12905772;22;20934;-85
2024/01/13 22:18:41;;;;;;;75.68;40.40;;;;;;;;;;12902865;22;20693;-86
2024/01/13 22:23:45;;;;;;;81.45;40.95;;;;;;;;;;12908380;22;20432;-86
2024/01/13 22:28:47;;;;;;;82.90;40.78;;;;;;;;;;12908593;22;20364;-86
2024/01/13 22:33:50;;;;;;;78.70;41.47;;;;;;;;;;12932121;23;20368;-86
2024/01/13 22:38:54;;;;;;;76.90;40.90;;;;;;;;;;12910753;22;20434;-86
2024/01/13 22:43:56;;;;;;;75.50;40.35;;;;;;;;;;12911484;22;20365;-86
2024/01/13 22:48:58;;;;;;;72.55;38.92;;;;;;;;;;12908277;22;20399;-86
2024/01/13 22:54:02;;;;;;;68.20;38.15;;;;;;;;;;12917784;22;20372;-86
2024/01/13 22:59:04;;;;;;;74.83;39.97;;;;;;;;;;12934398;23;20430;-86
2024/01/13 23:04:06;;;;;;;77.22;41.03;;;;;;;;;;12916278;22;20372;-86
2024/01/13 23:09:10;;;;;;;85.50;41.37;;;;;;;;;;12915609;22;20364;-85
2024/01/13 23:14:13;;;;;;;82.03;40.15;;;;;;;;;;12914656;22;20362;-86
2024/01/13 23:19:15;;;;;;;74.53;38.17;;;;;;;;;;12914630;22;20442;-86
2024/01/13 23:24:19;;;;;;;71.40;37.40;;;;;;;;;;12918206;22;20831;-86
2024/01/13 23:29:21;;;;;;;62.27;34.63;;;;;;;;;;12938079;23;20422;-86
2024/01/13 23:34:23;;;;;;;63.08;33.75;;;;;;;;;;12918153;22;20368;-86
2024/01/13 23:39:27;;;;;;;62.55;33.45;;;;;;;;;;12918057;22;20751;-86
2024/01/13 23:44:30;;;;;;;62.13;32.60;;;;;;;;;;12939306;23;20364;-86
2024/01/13 23:49:32;;;;;;;60.40;32.73;;;;;;;;;;12917757;22;20356;-85
2024/01/13 23:54:37;;;;;;;59.47;32.00;;;;;;;;;;12917380;22;20418;-86
2024/01/13 23:59:39;;;;;;;57.47;30.90;;;;;;;;;;12918312;22;20384;-85
